createdAt,value
2023-02-07T04:46:22.047Z,49.07
2023-02-07T04:49:04.668Z,52.00
2023-02-07T04:51:40.118Z,54.55
2023-02-07T04:54:18.896Z,62.55
2023-02-07T04:56:59.166Z,56.85
2023-02-07T04:59:37.659Z,66.32
2023-02-07T05:02:17.190Z,63.05
2023-02-07T05:04:58.499Z,55.40
2023-02-07T05:07:34.100Z,61.63
2023-02-07T05:10:12.254Z,67.53
2023-02-07T05:12:48.146Z,67.90
2023-02-07T05:15:25.426Z,69.13
2023-02-07T05:18:01.529Z,65.68
2023-02-07T05:20:39.710Z,66.53
2023-02-07T05:23:17.512Z,65.07
2023-02-07T05:28:59.005Z,65.15
2023-02-07T05:34:39.195Z,59.17
2023-02-07T05:40:25.828Z,63.22
2023-02-07T05:43:09.999Z,64.57
2023-02-07T05:45:45.964Z,65.88
2023-02-07T05:54:00.560Z,51.10
2023-02-07T05:56:48.620Z,59.20
2023-02-07T06:05:41.063Z,62.90
2023-02-07T06:08:17.545Z,67.15
2023-02-07T06:10:52.643Z,65.88
2023-02-07T06:16:33.931Z,60.45
2023-02-07T06:19:09.987Z,64.47
2023-02-07T07:47:45.051Z,43.58
2023-02-07T07:50:23.377Z,39.80
2023-02-07T07:53:01.967Z,38.33
2023-02-07T07:55:40.678Z,38.45
2023-02-07T07:58:20.950Z,42.20
2023-02-07T08:00:58.780Z,43.80
2023-02-07T08:03:41.712Z,43.35
2023-02-07T08:06:16.921Z,46.10
2023-02-07T08:08:57.544Z,49.47
2023-02-07T08:11:33.764Z,45.83
2023-02-07T08:16:46.049Z,48.35
2023-02-07T08:23:04.842Z,47.33
2023-02-07T08:47:05.302Z,44.65
2023-02-07T08:52:58.785Z,44.60
2023-02-07T08:55:40.147Z,48.65
2023-02-07T08:58:20.809Z,40.95
2023-02-07T09:01:03.884Z,39.40
2023-02-07T09:03:51.675Z,40.25
2023-02-07T09:06:34.393Z,42.13
2023-02-07T09:09:12.536Z,37.15
2023-02-07T09:11:49.663Z,38.88
2023-02-07T09:14:27.782Z,36.83
2023-02-07T09:17:03.640Z,38.23
2023-02-07T09:19:40.930Z,38.03
2023-02-07T09:22:30.532Z,39.75
2023-02-07T09:25:13.973Z,35.10
2023-02-07T09:27:56.298Z,35.42
2023-02-07T09:30:33.927Z,34.47
2023-02-07T09:33:13.231Z,31.40
2023-02-07T09:35:51.208Z,26.60
2023-02-07T09:38:29.567Z,31.35
2023-02-07T09:41:07.563Z,28.42
2023-02-07T09:43:49.908Z,26.40
2023-02-07T09:46:24.506Z,27.90
2023-02-07T09:49:07.258Z,28.02
2023-02-07T09:51:43.761Z,28.45
2023-02-07T09:54:26.493Z,26.30
2023-02-07T09:57:04.055Z,27.50
2023-02-07T09:59:48.235Z,29.17
2023-02-07T10:02:32.401Z,28.88
2023-02-07T10:05:12.166Z,25.60
2023-02-07T10:07:47.802Z,17.30
2023-02-07T10:10:24.227Z,20.73
2023-02-07T10:13:23.837Z,16.75
2023-02-07T10:16:05.567Z,15.53
2023-02-07T10:18:47.460Z,18.52
2023-02-07T10:21:29.379Z,17.70
2023-02-07T10:24:39.007Z,16.50
2023-02-07T10:27:16.354Z,11.90
2023-02-07T10:29:58.483Z,11.33
2023-02-07T10:32:37.350Z,12.43
2023-02-07T10:35:26.424Z,16.15
2023-02-07T10:38:05.752Z,15.65
2023-02-07T10:40:42.399Z,14.55
2023-02-07T10:43:35.044Z,16.03
2023-02-07T10:46:19.106Z,16.85
2023-02-07T10:49:03.372Z,15.87
2023-02-07T10:51:41.433Z,16.92
2023-02-07T10:54:18.044Z,17.63
2023-02-07T10:57:02.187Z,17.55
2023-02-07T10:59:40.808Z,15.60
2023-02-07T11:02:41.040Z,16.50
2023-02-07T11:05:37.048Z,18.92
2023-02-07T11:08:27.323Z,17.07
2023-02-07T11:11:04.089Z,16.60
2023-02-07T11:13:49.219Z,17.55
2023-02-07T11:16:41.130Z,16.88
2023-02-07T11:22:21.775Z,18.17
2023-02-07T11:33:59.423Z,15.95
2023-02-07T11:36:39.872Z,17.10
2023-02-07T11:39:24.312Z,17.23
2023-02-07T11:51:34.545Z,15.85
2023-02-07T11:54:36.652Z,17.13
2023-02-07T11:57:13.777Z,16.58
2023-02-07T12:03:37.093Z,16.10
2023-02-07T12:06:30.824Z,17.13
2023-02-07T12:18:41.674Z,14.95
2023-02-07T12:21:37.508Z,14.18
2023-02-07T12:24:23.402Z,13.68
2023-02-07T12:27:15.876Z,14.48
2023-02-07T12:30:13.802Z,15.63
2023-02-07T12:35:55.511Z,15.52
2023-02-07T12:41:35.049Z,16.30
2023-02-07T12:47:27.477Z,16.10
2023-02-07T12:50:06.538Z,14.60
2023-02-07T12:52:55.829Z,14.77
2023-02-07T12:55:38.025Z,16.00
2023-02-07T12:58:22.275Z,15.00
2023-02-07T13:01:02.721Z,15.45
2023-02-07T13:03:46.001Z,15.10
2023-02-07T13:06:29.412Z,16.25
2023-02-07T13:09:12.671Z,15.60
2023-02-07T13:11:58.783Z,16.05
2023-02-07T13:14:39.911Z,16.63
2023-02-07T13:17:22.388Z,16.15
2023-02-07T13:20:08.799Z,16.52
2023-02-07T13:22:52.850Z,16.00
2023-02-07T13:25:39.198Z,15.18
2023-02-07T13:28:19.184Z,15.55
2023-02-07T13:30:54.336Z,16.67
2023-02-07T13:33:34.303Z,16.10
2023-02-07T13:42:24.622Z,16.35
2023-02-07T13:45:24.629Z,15.70
2023-02-07T13:47:59.822Z,15.98
2023-02-07T13:50:49.722Z,17.33
2023-02-07T13:53:37.752Z,16.65
2023-02-07T13:56:39.307Z,16.60
2023-02-07T13:59:39.700Z,16.08
2023-02-07T14:05:41.260Z,16.80
2023-02-07T14:08:28.767Z,30.15
2023-02-07T14:11:11.642Z,16.73
2023-02-07T14:13:47.776Z,17.65
2023-02-07T14:19:02.109Z,17.67
2023-02-07T14:24:39.751Z,21.13
2023-02-07T14:28:12.682Z,16.97
2023-02-07T14:31:09.511Z,16.17
2023-02-07T14:33:52.957Z,14.25
2023-02-07T14:45:48.716Z,17.27
2023-02-07T14:48:34.705Z,17.15
2023-02-07T14:54:24.384Z,17.40
2023-02-07T14:57:08.250Z,17.75
2023-02-07T15:02:42.007Z,18.67
2023-02-07T15:05:30.535Z,18.52
2023-02-07T15:08:05.014Z,18.60
2023-02-07T15:10:43.251Z,19.20
2023-02-07T15:13:23.985Z,20.67
2023-02-07T15:16:02.221Z,20.80
2023-02-07T15:18:45.342Z,21.88
2023-02-07T15:21:21.398Z,20.60
2023-02-07T15:23:58.840Z,20.35
2023-02-07T15:26:37.293Z,19.45
2023-02-07T15:29:25.319Z,22.47
2023-02-07T15:32:11.483Z,21.05
2023-02-07T15:34:53.836Z,23.33
2023-02-07T15:37:31.234Z,28.17
2023-02-07T15:40:11.425Z,26.13
2023-02-07T15:43:00.298Z,25.67
2023-02-07T15:48:30.386Z,21.03
2023-02-07T15:51:16.445Z,27.17
2023-02-07T15:56:59.675Z,24.08
2023-02-07T15:59:36.529Z,30.35
2023-02-07T16:02:19.279Z,26.90
2023-02-07T16:04:54.354Z,27.13
2023-02-07T16:07:31.812Z,25.05
2023-02-07T16:10:03.119Z,24.60
2023-02-07T16:12:50.249Z,22.38
2023-02-07T16:15:31.370Z,24.48
2023-02-07T16:18:17.957Z,29.03
2023-02-07T16:27:30.695Z,24.33
2023-02-07T16:30:12.550Z,24.63
2023-02-07T16:32:57.879Z,21.25
2023-02-07T16:35:45.313Z,24.60
2023-02-07T16:38:23.248Z,43.90
2023-02-07T16:40:57.929Z,90.90
2023-02-07T16:43:45.799Z,41.92
2023-02-07T16:46:29.477Z,28.40
2023-02-07T16:49:12.340Z,26.30
2023-02-07T16:51:50.029Z,31.60
2023-02-07T16:54:28.424Z,26.77
2023-02-07T16:57:05.957Z,31.70
2023-02-07T16:59:48.870Z,25.60
2023-02-07T17:02:27.155Z,25.70
2023-02-07T17:05:05.008Z,25.95
2023-02-07T17:07:46.566Z,29.80
2023-02-07T17:19:36.605Z,24.30
2023-02-07T17:22:31.404Z,22.38
2023-02-07T17:25:08.209Z,26.03
2023-02-07T17:30:56.103Z,20.85
2023-02-07T17:33:39.052Z,20.92
2023-02-07T17:39:28.327Z,18.75
2023-02-07T17:42:09.153Z,21.13
2023-02-07T17:44:47.850Z,26.30
2023-02-07T17:47:26.516Z,27.20
2023-02-07T17:55:50.074Z,24.53
2023-02-07T17:58:26.742Z,47.45
2023-02-07T18:01:06.444Z,39.33
2023-02-07T18:03:49.702Z,44.03
2023-02-07T18:06:35.032Z,26.88
2023-02-07T18:09:14.003Z,42.03
2023-02-07T18:11:52.772Z,24.25
2023-02-07T18:14:34.460Z,21.05
2023-02-07T18:17:19.758Z,18.80
2023-02-07T18:20:04.109Z,21.02
2023-02-07T18:22:46.358Z,20.05
2023-02-07T18:25:46.313Z,22.48
2023-02-07T18:32:10.977Z,19.83
2023-02-07T18:35:02.310Z,24.15
2023-02-07T18:37:40.081Z,18.00
2023-02-07T18:40:41.185Z,19.20
2023-02-07T18:46:05.985Z,20.15
2023-02-07T18:48:57.998Z,19.50
2023-02-07T18:54:48.972Z,19.25
2023-02-07T18:57:55.822Z,23.77
2023-02-07T19:00:43.863Z,20.70
2023-02-07T19:09:35.893Z,16.38
2023-02-07T19:12:46.488Z,21.15
2023-02-07T19:15:50.399Z,16.40
2023-02-07T19:18:47.940Z,17.80
2023-02-07T19:24:42.849Z,16.67
2023-02-07T19:27:48.082Z,16.50
2023-02-07T19:30:34.527Z,14.70
2023-02-07T19:33:25.980Z,18.60
2023-02-07T19:36:15.772Z,22.33
2023-02-07T19:39:07.199Z,23.10
2023-02-07T19:41:46.479Z,30.92
2023-02-07T19:44:31.972Z,24.67
2023-02-07T19:48:02.047Z,18.05
2023-02-07T19:57:02.604Z,14.30
2023-02-07T19:59:53.450Z,15.10
2023-02-07T20:02:56.362Z,14.50
2023-02-07T20:08:40.314Z,17.20
2023-02-07T20:14:14.118Z,23.57
2023-02-07T20:23:10.516Z,18.50
2023-02-07T20:28:53.597Z,32.35
2023-02-07T20:31:37.162Z,24.55
2023-02-07T20:34:28.016Z,18.70
2023-02-07T20:37:06.296Z,24.33
2023-02-07T20:39:44.795Z,27.67
2023-02-07T20:45:23.840Z,39.42
2023-02-07T20:57:33.440Z,20.53
2023-02-07T21:06:11.317Z,20.05
2023-02-07T21:11:51.841Z,20.45
2023-02-07T21:18:18.156Z,18.20
2023-02-07T21:20:57.158Z,27.00
2023-02-07T21:23:43.338Z,29.67
2023-02-07T21:26:25.973Z,61.63
2023-02-07T21:29:04.951Z,30.23
2023-02-07T21:32:02.527Z,26.05
2023-02-07T21:34:57.415Z,24.45
2023-02-07T21:37:36.166Z,21.93
2023-02-07T21:40:30.733Z,17.53
2023-02-07T21:43:10.843Z,17.17
2023-02-07T21:46:03.200Z,15.45
2023-02-07T21:48:48.284Z,15.30
2023-02-07T21:51:45.620Z,19.27
2023-02-07T21:57:44.859Z,16.42
2023-02-07T22:00:32.743Z,16.95
2023-02-07T22:03:13.398Z,13.93
2023-02-07T22:05:52.921Z,15.35
2023-02-07T22:08:36.543Z,16.52
2023-02-07T22:11:20.505Z,17.80
2023-02-07T22:13:59.476Z,16.20
2023-02-07T22:16:53.349Z,16.85
2023-02-07T22:19:33.747Z,17.65
2023-02-07T22:22:06.486Z,17.15
2023-02-07T22:24:55.819Z,15.73
2023-02-07T22:27:37.450Z,15.30
2023-02-07T22:33:19.361Z,16.65
2023-02-07T22:36:19.294Z,16.25
2023-02-07T22:39:02.245Z,16.77
2023-02-07T22:41:43.309Z,15.63
2023-02-07T22:44:31.250Z,15.10
2023-02-07T22:47:17.215Z,16.25
2023-02-07T22:49:57.933Z,15.37
2023-02-07T22:52:47.600Z,14.50
2023-02-07T23:04:42.145Z,13.38
2023-02-07T23:07:47.604Z,14.50
2023-02-07T23:13:34.308Z,20.13
2023-02-07T23:16:47.470Z,16.23
2023-02-07T23:20:00.114Z,17.20
2023-02-07T23:29:30.477Z,14.57
2023-02-07T23:32:18.168Z,13.45
2023-02-07T23:35:11.406Z,13.55
2023-02-07T23:52:53.313Z,13.10
2023-02-07T23:55:44.107Z,12.43
